sensor_id;sensor_type;location;lat;lon;timestamp;pressure;altitude;pressure_sealevel;temperature;humidity
76990;BME280;65924;47.250;11.332;2023-09-19T00:07:15;94845.71;;;14.98;88.24
76990;BME280;65924;47.250;11.332;2023-09-19T00:17:17;94837.23;;;14.91;88.38
76990;BME280;65924;47.250;11.332;2023-09-19T00:27:17;94827.89;;;14.94;88.81
76990;BME280;65924;47.250;11.332;2023-09-19T00:37:18;94834.41;;;14.92;88.50
76990;BME280;65924;47.250;11.332;2023-09-19T00:47:20;94836.25;;;14.92;88.79
76990;BME280;65924;47.250;11.332;2023-09-19T00:57:20;94831.24;;;14.95;88.99
76990;BME280;65924;47.250;11.332;2023-09-19T01:07:23;94834.64;;;15.02;89.02
76990;BME280;65924;47.250;11.332;2023-09-19T01:17:30;94834.95;;;15.07;89.05
76990;BME280;65924;47.250;11.332;2023-09-19T01:38:01;94837.74;;;15.12;89.12
76990;BME280;65924;47.250;11.332;2023-09-19T01:58:49;94836.48;;;15.17;89.29
76990;BME280;65924;47.250;11.332;2023-09-19T02:08:51;94837.02;;;15.20;89.20
76990;BME280;65924;47.250;11.332;2023-09-19T02:18:52;94841.45;;;15.17;89.03
76990;BME280;65924;47.250;11.332;2023-09-19T02:28:52;94843.02;;;15.17;89.18
76990;BME280;65924;47.250;11.332;2023-09-19T02:38:53;94836.08;;;15.18;89.21
76990;BME280;65924;47.250;11.332;2023-09-19T02:48:54;94827.19;;;15.18;89.14
76990;BME280;65924;47.250;11.332;2023-09-19T02:58:55;94833.05;;;15.15;89.04
76990;BME280;65924;47.250;11.332;2023-09-19T03:08:56;94833.95;;;15.12;89.06
76990;BME280;65924;47.250;11.332;2023-09-19T03:18:57;94824.71;;;15.12;89.05
76990;BME280;65924;47.250;11.332;2023-09-19T03:29:03;94821.20;;;15.13;89.15
76990;BME280;65924;47.250;11.332;2023-09-19T03:39:08;94828.43;;;15.13;89.11
76990;BME280;65924;47.250;11.332;2023-09-19T03:49:09;94819.77;;;15.12;89.26
76990;BME280;65924;47.250;11.332;2023-09-19T03:59:11;94823.54;;;15.14;89.29
76990;BME280;65924;47.250;11.332;2023-09-19T04:09:12;94826.35;;;15.15;89.36
76990;BME280;65924;47.250;11.332;2023-09-19T04:19:14;94831.36;;;15.17;89.37
76990;BME280;65924;47.250;11.332;2023-09-19T04:29:15;94836.66;;;15.17;89.38
76990;BME280;65924;47.250;11.332;2023-09-19T04:39:16;94853.02;;;15.18;89.31
76990;BME280;65924;47.250;11.332;2023-09-19T04:49:17;94861.76;;;15.18;88.92
76990;BME280;65924;47.250;11.332;2023-09-19T04:59:22;94876.41;;;15.17;89.46
76990;BME280;65924;47.250;11.332;2023-09-19T05:09:24;94883.96;;;15.19;89.58
76990;BME280;65924;47.250;11.332;2023-09-19T05:19:25;94896.52;;;15.16;89.61
76990;BME280;65924;47.250;11.332;2023-09-19T05:29:25;94905.05;;;15.12;89.38
76990;BME280;65924;47.250;11.332;2023-09-19T05:39:26;94909.83;;;15.10;89.39
76990;BME280;65924;47.250;11.332;2023-09-19T05:49:27;94918.69;;;15.09;89.59
76990;BME280;65924;47.250;11.332;2023-09-19T05:59:28;94924.71;;;15.08;89.55
76990;BME280;65924;47.250;11.332;2023-09-19T06:09:28;94926.59;;;15.14;89.82
76990;BME280;65924;47.250;11.332;2023-09-19T06:19:29;94935.65;;;15.19;89.53
76990;BME280;65924;47.250;11.332;2023-09-19T06:29:30;94939.48;;;15.25;89.53
76990;BME280;65924;47.250;11.332;2023-09-19T06:39:31;94945.54;;;15.28;89.23
76990;BME280;65924;47.250;11.332;2023-09-19T06:49:32;94957.56;;;15.36;89.34
76990;BME280;65924;47.250;11.332;2023-09-19T06:59:32;94955.09;;;15.43;89.25
76990;BME280;65924;47.250;11.332;2023-09-19T07:09:33;94957.78;;;15.50;89.56
76990;BME280;65924;47.250;11.332;2023-09-19T07:19:33;94968.17;;;15.58;89.64
76990;BME280;65924;47.250;11.332;2023-09-19T07:29:34;94976.26;;;15.66;89.85
76990;BME280;65924;47.250;11.332;2023-09-19T07:39:34;94976.77;;;15.70;89.07
76990;BME280;65924;47.250;11.332;2023-09-19T07:49:35;94988.14;;;15.67;87.81
76990;BME280;65924;47.250;11.332;2023-09-19T07:59:36;94991.65;;;15.81;87.96
76990;BME280;65924;47.250;11.332;2023-09-19T08:09:36;95002.73;;;16.12;87.62
76990;BME280;65924;47.250;11.332;2023-09-19T08:19:39;95013.85;;;16.30;87.05
76990;BME280;65924;47.250;11.332;2023-09-19T08:29:42;95014.61;;;16.40;86.73
76990;BME280;65924;47.250;11.332;2023-09-19T08:39:42;95011.98;;;16.40;86.08
76990;BME280;65924;47.250;11.332;2023-09-19T08:50:01;94997.11;;;16.40;84.98
76990;BME280;65924;47.250;11.332;2023-09-19T09:00:04;94995.86;;;16.47;85.62
76990;BME280;65924;47.250;11.332;2023-09-19T09:10:16;94994.41;;;16.58;84.21
76990;BME280;65924;47.250;11.332;2023-09-19T09:20:17;94991.23;;;16.71;83.34
76990;BME280;65924;47.250;11.332;2023-09-19T09:30:37;94980.52;;;16.94;82.66
76990;BME280;65924;47.250;11.332;2023-09-19T09:40:59;94971.33;;;17.19;81.76
76990;BME280;65924;47.250;11.332;2023-09-19T09:51:07;94965.40;;;17.36;82.02
76990;BME280;65924;47.250;11.332;2023-09-19T10:01:08;94964.63;;;17.51;81.27
76990;BME280;65924;47.250;11.332;2023-09-19T10:11:16;94959.13;;;17.72;81.26
76990;BME280;65924;47.250;11.332;2023-09-19T10:21:17;94951.94;;;18.00;79.97
76990;BME280;65924;47.250;11.332;2023-09-19T10:31:23;94944.96;;;18.15;77.75
76990;BME280;65924;47.250;11.332;2023-09-19T10:41:28;94944.50;;;18.23;76.70
76990;BME280;65924;47.250;11.332;2023-09-19T10:51:39;94942.06;;;18.40;77.34
76990;BME280;65924;47.250;11.332;2023-09-19T11:11:46;94936.73;;;18.61;76.85
76990;BME280;65924;47.250;11.332;2023-09-19T11:21:53;94921.21;;;18.72;76.36
76990;BME280;65924;47.250;11.332;2023-09-19T11:31:55;94902.21;;;18.93;75.79
76990;BME280;65924;47.250;11.332;2023-09-19T11:41:56;94893.90;;;19.10;73.96
76990;BME280;65924;47.250;11.332;2023-09-19T11:52:01;94887.50;;;19.06;73.89
76990;BME280;65924;47.250;11.332;2023-09-19T12:02:06;94876.23;;;19.13;74.69
76990;BME280;65924;47.250;11.332;2023-09-19T12:12:08;94861.98;;;19.37;71.64
76990;BME280;65924;47.250;11.332;2023-09-19T12:22:09;94845.79;;;19.53;70.50
76990;BME280;65924;47.250;11.332;2023-09-19T12:32:10;94834.09;;;19.75;68.99
76990;BME280;65924;47.250;11.332;2023-09-19T12:42:11;94822.00;;;19.98;70.01
76990;BME280;65924;47.250;11.332;2023-09-19T12:52:15;94815.42;;;20.34;68.08
76990;BME280;65924;47.250;11.332;2023-09-19T13:02:15;94808.73;;;20.35;67.73
76990;BME280;65924;47.250;11.332;2023-09-19T13:12:36;94796.97;;;20.39;64.91
76990;BME280;65924;47.250;11.332;2023-09-19T13:22:38;94794.13;;;20.41;65.78
76990;BME280;65924;47.250;11.332;2023-09-19T13:32:39;94784.99;;;20.53;65.95
76990;BME280;65924;47.250;11.332;2023-09-19T13:42:41;94784.09;;;20.56;66.58
76990;BME280;65924;47.250;11.332;2023-09-19T13:52:42;94777.08;;;20.68;65.60
76990;BME280;65924;47.250;11.332;2023-09-19T14:02:43;94774.65;;;20.76;66.33
76990;BME280;65924;47.250;11.332;2023-09-19T14:12:46;94777.11;;;20.79;64.98
76990;BME280;65924;47.250;11.332;2023-09-19T14:22:47;94766.61;;;20.90;64.95
76990;BME280;65924;47.250;11.332;2023-09-19T14:32:48;94761.43;;;20.98;63.58
76990;BME280;65924;47.250;11.332;2023-09-19T14:42:48;94756.16;;;21.10;62.81
76990;BME280;65924;47.250;11.332;2023-09-19T14:52:49;94750.90;;;21.02;64.24
76990;BME280;65924;47.250;11.332;2023-09-19T15:02:52;94747.91;;;21.00;64.98
76990;BME280;65924;47.250;11.332;2023-09-19T15:12:52;94751.98;;;20.93;65.42
76990;BME280;65924;47.250;11.332;2023-09-19T15:22:53;94754.55;;;20.73;65.27
76990;BME280;65924;47.250;11.332;2023-09-19T15:32:54;94750.83;;;20.46;65.07
76990;BME280;65924;47.250;11.332;2023-09-19T15:42:55;94757.20;;;20.26;64.41
76990;BME280;65924;47.250;11.332;2023-09-19T15:53:00;94763.13;;;20.03;65.61
76990;BME280;65924;47.250;11.332;2023-09-19T16:03:02;94762.09;;;19.93;66.63
76990;BME280;65924;47.250;11.332;2023-09-19T16:13:04;94774.39;;;19.84;66.44
76990;BME280;65924;47.250;11.332;2023-09-19T16:23:08;94781.59;;;19.72;67.17
76990;BME280;65924;47.250;11.332;2023-09-19T16:33:10;94785.59;;;19.58;67.30
76990;BME280;65924;47.250;11.332;2023-09-19T16:43:12;94781.70;;;19.47;67.38
76990;BME280;65924;47.250;11.332;2023-09-19T16:53:14;94797.27;;;19.34;67.00
76990;BME280;65924;47.250;11.332;2023-09-19T17:03:17;94808.10;;;19.19;67.64
76990;BME280;65924;47.250;11.332;2023-09-19T17:13:19;94815.42;;;19.00;67.83
76990;BME280;65924;47.250;11.332;2023-09-19T17:23:21;94829.39;;;18.80;68.04
76990;BME280;65924;47.250;11.332;2023-09-19T17:33:27;94837.98;;;18.62;68.52
76990;BME280;65924;47.250;11.332;2023-09-19T17:43:30;94845.52;;;18.44;69.07
76990;BME280;65924;47.250;11.332;2023-09-19T17:53:32;94864.77;;;18.17;70.36
76990;BME280;65924;47.250;11.332;2023-09-19T18:03:40;94871.67;;;17.90;71.65
76990;BME280;65924;47.250;11.332;2023-09-19T18:13:45;94878.28;;;17.63;72.82
76990;BME280;65924;47.250;11.332;2023-09-19T18:23:55;94890.73;;;17.45;73.06
76990;BME280;65924;47.250;11.332;2023-09-19T18:33:58;94895.45;;;17.34;73.28
76990;BME280;65924;47.250;11.332;2023-09-19T18:43:59;94904.27;;;17.24;73.30
76990;BME280;65924;47.250;11.332;2023-09-19T18:54:02;94910.84;;;17.14;73.35
76990;BME280;65924;47.250;11.332;2023-09-19T19:04:06;94916.52;;;17.00;73.71
76990;BME280;65924;47.250;11.332;2023-09-19T19:14:07;94919.70;;;16.89;73.79
76990;BME280;65924;47.250;11.332;2023-09-19T19:24:09;94925.65;;;16.73;74.25
76990;BME280;65924;47.250;11.332;2023-09-19T19:34:13;94933.51;;;16.60;74.66
76990;BME280;65924;47.250;11.332;2023-09-19T19:44:15;94938.10;;;16.50;74.92
76990;BME280;65924;47.250;11.332;2023-09-19T19:54:16;94957.66;;;16.36;75.31
76990;BME280;65924;47.250;11.332;2023-09-19T20:04:18;94969.80;;;16.22;75.62
76990;BME280;65924;47.250;11.332;2023-09-19T20:14:19;94979.05;;;16.12;76.03
76990;BME280;65924;47.250;11.332;2023-09-19T20:24:20;94986.85;;;16.07;76.00
76990;BME280;65924;47.250;11.332;2023-09-19T20:34:24;94989.97;;;15.98;76.25
76990;BME280;65924;47.250;11.332;2023-09-19T20:44:26;94995.05;;;15.84;76.78
76990;BME280;65924;47.250;11.332;2023-09-19T20:54:29;95004.83;;;15.73;77.09
76990;BME280;65924;47.250;11.332;2023-09-19T21:04:31;95010.80;;;15.67;77.28
76990;BME280;65924;47.250;11.332;2023-09-19T21:14:33;95019.02;;;15.66;77.07
76990;BME280;65924;47.250;11.332;2023-09-19T21:24:33;95025.91;;;15.56;77.16
76990;BME280;65924;47.250;11.332;2023-09-19T21:34:37;95030.94;;;15.46;77.56
76990;BME280;65924;47.250;11.332;2023-09-19T21:44:38;95034.77;;;15.35;77.69
76990;BME280;65924;47.250;11.332;2023-09-19T21:54:38;95040.92;;;15.24;78.05
76990;BME280;65924;47.250;11.332;2023-09-19T22:04:39;95048.21;;;15.27;78.12
76990;BME280;65924;47.250;11.332;2023-09-19T22:14:40;95035.93;;;15.18;78.08
76990;BME280;65924;47.250;11.332;2023-09-19T22:24:41;95040.59;;;15.06;78.16
76990;BME280;65924;47.250;11.332;2023-09-19T22:34:42;95045.52;;;14.95;78.27
76990;BME280;65924;47.250;11.332;2023-09-19T22:44:42;95040.56;;;14.84;78.58
76990;BME280;65924;47.250;11.332;2023-09-19T22:54:45;95039.63;;;14.74;78.62
76990;BME280;65924;47.250;11.332;2023-09-19T23:04:46;95042.69;;;14.70;78.96
76990;BME280;65924;47.250;11.332;2023-09-19T23:14:46;95041.75;;;14.64;79.02
76990;BME280;65924;47.250;11.332;2023-09-19T23:24:47;95036.88;;;14.61;78.86
76990;BME280;65924;47.250;11.332;2023-09-19T23:34:52;95042.16;;;14.56;78.99
76990;BME280;65924;47.250;11.332;2023-09-19T23:44:53;95046.31;;;14.51;79.02
76990;BME280;65924;47.250;11.332;2023-09-19T23:54:55;95051.74;;;14.40;79.10
